Salmon, Idaho
Current Conditions -  °F | °C
As of 4:55 AM on Tuesday 21 Oct 2014 (Local Time) from KSMN Reporting Station
Overcast Overcast  
Wind Chill: 52°   Ceiling: 7500
Heat Index: 52°   Visibility: 10mi
Dew Point: 37°   Wind: 6mph
Humidity: 58%   Direction: 180°S
Pressure: 29.74"   Gusts: NA
Location:  45.18°N, 113.9°W
Report Text: KSMN 211055Z AUTO 18005KT 10SM BKN075 OVC085 11/03 A2974 RMK AO1
Loading
Personal Weather Stations






























Interactive Weather Map
Tropical Storm Tracking
New forecast layout! Learn more

10-Day Weather Forecast

Advertisements
Track Severe Weather on mobile